createdAt,value
2023-03-28T00:01:27.213Z,72.19
2023-03-28T00:03:57.265Z,73.37
2023-03-28T00:06:26.493Z,72.96
2023-03-28T00:08:55.882Z,73.07
2023-03-28T00:11:25.645Z,72.99
2023-03-28T00:14:01.092Z,72.45
2023-03-28T00:16:34.341Z,72.96
2023-03-28T00:19:08.606Z,72.01
2023-03-28T00:21:40.253Z,72.45
2023-03-28T00:24:13.965Z,72.06
2023-03-28T00:26:45.117Z,71.59
2023-03-28T00:29:21.252Z,71.64
2023-03-28T00:31:52.285Z,72.04
2023-03-28T00:34:21.156Z,72.38
2023-03-28T00:36:50.820Z,74.46
2023-03-28T00:39:19.532Z,73.76
2023-03-28T00:41:48.476Z,73.65
2023-03-28T00:44:47.792Z,72.32
2023-03-28T00:47:38.872Z,71.72
2023-03-28T00:50:16.466Z,72.48
2023-03-28T00:52:54.527Z,72.30
2023-03-28T00:55:31.908Z,73.12
2023-03-28T00:58:01.556Z,72.25
2023-03-28T01:00:32.923Z,72.06
2023-03-28T01:03:06.836Z,72.24
2023-03-28T01:05:38.090Z,72.09
2023-03-28T01:08:15.956Z,71.75
2023-03-28T01:10:46.403Z,72.39
2023-03-28T01:13:20.331Z,71.43
2023-03-28T01:15:51.694Z,70.93
2023-03-28T01:18:24.464Z,70.92
2023-03-28T01:21:53.908Z,71.11
2023-03-28T01:25:23.575Z,71.17
2023-03-28T01:28:02.312Z,70.65
2023-03-28T01:31:11.798Z,70.85
2023-03-28T01:35:06.488Z,71.34
2023-03-28T01:37:45.951Z,69.89
2023-03-28T01:40:39.655Z,70.60
2023-03-28T01:43:28.896Z,72.60
2023-03-28T01:46:05.921Z,72.45
2023-03-28T01:48:55.362Z,72.12
2023-03-28T01:51:41.246Z,72.60
2023-03-28T01:54:22.866Z,71.58
2023-03-28T01:57:03.026Z,72.31
2023-03-28T01:59:43.249Z,72.69
2023-03-28T02:02:37.057Z,72.41
2023-03-28T02:05:30.727Z,71.54
2023-03-28T02:08:03.528Z,71.92
2023-03-28T02:10:46.907Z,71.51
2023-03-28T02:13:34.817Z,71.29
2023-03-28T02:16:27.837Z,71.36
2023-03-28T02:19:06.456Z,70.38
2023-03-28T02:22:02.036Z,70.38
2023-03-28T02:24:57.808Z,71.15
2023-03-28T02:27:53.042Z,70.69
2023-03-28T02:30:26.061Z,71.41
2023-03-28T02:33:01.141Z,71.62
2023-03-28T02:35:46.998Z,73.25
2023-03-28T02:38:27.109Z,75.79
2023-03-28T02:41:10.053Z,76.43
2023-03-28T02:44:05.003Z,73.00
2023-03-28T02:46:53.304Z,73.15
2023-03-28T02:49:49.472Z,75.92
2023-03-28T02:52:35.282Z,77.15
2023-03-28T02:55:19.207Z,76.35
2023-03-28T02:58:10.377Z,75.02
2023-03-28T03:00:40.794Z,74.76
2023-03-28T03:03:11.810Z,74.35
2023-03-28T03:05:41.557Z,73.88
2023-03-28T03:08:11.728Z,73.43
2023-03-28T03:10:40.952Z,73.57
2023-03-28T03:13:09.688Z,73.44
2023-03-28T03:15:41.474Z,73.76
2023-03-28T03:18:26.297Z,73.23
2023-03-28T03:20:55.634Z,73.81
2023-03-28T03:23:26.579Z,74.02
2023-03-28T03:25:58.554Z,74.50
2023-03-28T03:28:55.452Z,74.40
2023-03-28T03:31:30.186Z,75.09
2023-03-28T03:34:18.224Z,75.31
2023-03-28T03:36:55.015Z,75.39
2023-03-28T03:39:24.562Z,76.86
2023-03-28T03:41:53.628Z,80.36
2023-03-28T03:44:22.331Z,79.75
2023-03-28T03:46:54.206Z,80.68
2023-03-28T03:49:23.053Z,80.98
2023-03-28T03:51:52.175Z,82.77
2023-03-28T03:54:21.990Z,82.80
2023-03-28T03:56:51.474Z,82.59
2023-03-28T03:59:21.105Z,81.33
2023-03-28T04:01:50.973Z,80.76
2023-03-28T04:04:42.969Z,80.53
2023-03-28T04:07:25.881Z,81.04
2023-03-28T04:09:58.042Z,81.23
2023-03-28T04:12:29.394Z,81.75
2023-03-28T04:14:58.301Z,80.85
2023-03-28T04:17:41.510Z,81.39
2023-03-28T04:20:20.178Z,81.46
2023-03-28T04:23:09.937Z,81.09
2023-03-28T04:25:43.740Z,80.14
2023-03-28T04:28:39.320Z,79.66
2023-03-28T04:31:12.097Z,78.79
2023-03-28T04:34:00.509Z,80.09
2023-03-28T04:36:32.865Z,79.02
2023-03-28T04:39:05.472Z,78.80
2023-03-28T04:42:11.720Z,79.16
2023-03-28T04:44:59.109Z,79.49
2023-03-28T04:47:28.290Z,79.19
2023-03-28T04:49:58.444Z,79.41
2023-03-28T04:52:36.526Z,78.91
2023-03-28T04:55:07.935Z,78.90
2023-03-28T04:57:38.515Z,78.74
2023-03-28T05:00:13.141Z,78.39
2023-03-28T05:03:01.589Z,78.22
2023-03-28T05:05:34.653Z,78.28
2023-03-28T05:08:06.831Z,78.40
2023-03-28T05:10:36.243Z,77.74
2023-03-28T05:13:09.200Z,77.88
2023-03-28T05:16:00.031Z,77.57
2023-03-28T05:19:00.212Z,77.17
2023-03-28T05:21:48.756Z,76.37
2023-03-28T05:24:19.065Z,76.90
2023-03-28T05:26:47.880Z,76.28
2023-03-28T05:29:17.721Z,75.68
2023-03-28T05:31:48.761Z,75.81
2023-03-28T05:34:29.576Z,75.05
2023-03-28T05:36:59.220Z,74.77
2023-03-28T05:39:36.082Z,75.03
2023-03-28T05:42:08.879Z,73.30
2023-03-28T05:44:40.178Z,73.08
2023-03-28T05:47:23.667Z,72.38
2023-03-28T05:49:54.908Z,72.45
2023-03-28T05:52:28.909Z,72.26
2023-03-28T05:54:59.030Z,72.49
2023-03-28T05:57:27.826Z,72.76
2023-03-28T05:59:56.895Z,72.37
2023-03-28T06:02:26.853Z,71.82
2023-03-28T06:05:00.340Z,72.00
2023-03-28T06:07:41.554Z,72.70
2023-03-28T06:10:16.756Z,71.98
2023-03-28T06:12:56.869Z,71.39
2023-03-28T06:15:25.852Z,71.24
2023-03-28T06:17:54.714Z,71.15
2023-03-28T06:20:23.891Z,70.77
2023-03-28T06:23:17.882Z,70.17
2023-03-28T06:25:48.413Z,69.75
2023-03-28T06:28:19.726Z,69.70
2023-03-28T06:31:20.893Z,69.13
2023-03-28T06:33:51.191Z,69.38
2023-03-28T06:36:22.556Z,69.83
2023-03-28T06:38:53.580Z,69.58
2023-03-28T06:41:26.402Z,67.68
2023-03-28T06:43:55.545Z,67.53
2023-03-28T06:46:42.905Z,66.51
2023-03-28T06:49:13.757Z,66.07
2023-03-28T06:52:01.057Z,66.75
2023-03-28T06:54:31.139Z,65.78
2023-03-28T06:57:01.941Z,65.75
2023-03-28T06:59:31.178Z,66.09
2023-03-28T07:02:04.897Z,66.33
2023-03-28T07:04:36.414Z,65.48
2023-03-28T07:07:05.998Z,64.67
2023-03-28T07:09:34.856Z,64.92
2023-03-28T07:12:10.783Z,63.88
2023-03-28T07:14:40.645Z,63.92
2023-03-28T07:17:09.526Z,64.10
2023-03-28T07:19:38.337Z,63.46
2023-03-28T07:22:07.393Z,63.45
2023-03-28T07:24:38.209Z,64.02
2023-03-28T07:27:16.021Z,63.87
2023-03-28T07:29:47.124Z,62.42
2023-03-28T07:32:23.924Z,62.73
2023-03-28T07:34:52.747Z,60.86
2023-03-28T07:37:25.769Z,60.35
2023-03-28T07:40:13.160Z,60.95
2023-03-28T07:42:44.751Z,59.76
2023-03-28T07:45:13.770Z,60.17
2023-03-28T07:47:42.921Z,60.93
2023-03-28T07:50:12.294Z,61.32
2023-03-28T07:52:45.626Z,59.51
2023-03-28T07:55:15.791Z,59.85
2023-03-28T07:57:50.343Z,59.27
2023-03-28T08:00:38.131Z,59.95
2023-03-28T08:03:25.768Z,58.42
2023-03-28T08:05:54.942Z,58.04
2023-03-28T08:08:25.183Z,58.59
2023-03-28T08:11:06.761Z,57.43
2023-03-28T08:13:37.452Z,57.78
2023-03-28T08:16:18.292Z,57.56
2023-03-28T08:18:54.381Z,57.25
2023-03-28T08:21:31.267Z,56.14
2023-03-28T08:24:00.463Z,54.93
2023-03-28T08:26:39.202Z,55.55
2023-03-28T08:29:11.683Z,54.01
2023-03-28T08:31:40.862Z,53.08
2023-03-28T08:34:14.385Z,52.81
2023-03-28T08:36:44.316Z,53.80
2023-03-28T08:39:29.243Z,52.31
2023-03-28T08:42:28.843Z,52.73
2023-03-28T08:45:23.140Z,54.27
2023-03-28T08:48:07.725Z,56.62
2023-03-28T08:50:45.659Z,60.96
2023-03-28T08:53:27.617Z,61.17
2023-03-28T08:55:59.102Z,57.86
2023-03-28T08:58:38.848Z,59.19
2023-03-28T09:01:11.648Z,59.65
2023-03-28T09:03:41.187Z,59.48
2023-03-28T09:06:28.837Z,62.62
2023-03-28T09:09:19.874Z,65.24
2023-03-28T09:12:12.446Z,62.31
2023-03-28T09:15:17.352Z,64.39
2023-03-28T09:18:02.357Z,61.87
2023-03-28T09:20:43.001Z,59.88
2023-03-28T09:24:02.106Z,60.96
2023-03-28T09:26:38.813Z,59.93
2023-03-28T09:29:18.976Z,61.64
2023-03-28T09:31:51.841Z,61.73
2023-03-28T09:34:27.757Z,61.81
2023-03-28T09:37:15.345Z,57.47
2023-03-28T09:39:52.303Z,61.13
2023-03-28T09:42:36.262Z,62.17
2023-03-28T09:45:40.833Z,58.96
2023-03-28T09:48:32.030Z,58.37
2023-03-28T09:51:08.885Z,57.29
2023-03-28T09:53:39.717Z,57.93
2023-03-28T09:56:24.188Z,58.85
2023-03-28T09:58:55.883Z,51.91
2023-03-28T10:01:42.983Z,53.13
2023-03-28T10:04:36.952Z,50.90
2023-03-28T10:07:43.642Z,49.46
2023-03-28T10:10:25.233Z,55.11
2023-03-28T10:13:06.033Z,52.59
2023-03-28T10:15:48.172Z,49.82
2023-03-28T10:18:36.270Z,51.67
2023-03-28T10:21:27.054Z,48.47
2023-03-28T10:24:20.907Z,52.60
2023-03-28T10:27:01.083Z,52.08
2023-03-28T10:29:30.219Z,50.12
2023-03-28T10:31:59.245Z,53.01
2023-03-28T10:34:35.393Z,54.51
2023-03-28T10:37:27.308Z,52.94
2023-03-28T10:40:33.933Z,53.44
2023-03-28T10:43:37.611Z,51.53
2023-03-28T10:46:22.467Z,56.53
2023-03-28T10:49:22.864Z,55.16
2023-03-28T10:52:23.460Z,56.29
2023-03-28T10:55:08.264Z,52.01
2023-03-28T10:58:09.037Z,52.63
2023-03-28T11:01:02.478Z,53.37
2023-03-28T11:04:06.711Z,54.46
2023-03-28T11:06:46.030Z,55.76
2023-03-28T11:09:32.873Z,59.60
2023-03-28T11:12:51.348Z,56.88
2023-03-28T11:15:37.178Z,55.56
2023-03-28T11:18:35.976Z,57.19
2023-03-28T11:21:27.947Z,56.53
2023-03-28T11:24:10.464Z,54.34
2023-03-28T11:27:15.590Z,59.34
2023-03-28T11:30:08.392Z,58.40
2023-03-28T11:32:52.860Z,56.05
2023-03-28T11:35:31.749Z,57.53
2023-03-28T11:38:11.615Z,53.48
2023-03-28T11:40:55.665Z,53.85
2023-03-28T11:43:43.288Z,55.43
2023-03-28T11:46:19.704Z,53.26
2023-03-28T11:49:07.712Z,48.54
2023-03-28T11:51:45.841Z,54.79
2023-03-28T11:54:22.354Z,49.05
2023-03-28T11:56:58.733Z,48.34
2023-03-28T11:59:53.696Z,48.61
2023-03-28T12:02:43.407Z,40.42
2023-03-28T12:05:26.837Z,41.93
2023-03-28T12:08:11.406Z,43.44
2023-03-28T12:10:56.717Z,40.89
2023-03-28T12:13:53.113Z,40.25
2023-03-28T12:16:38.609Z,42.69
2023-03-28T12:19:21.875Z,42.85
2023-03-28T12:22:02.074Z,41.14
2023-03-28T12:24:55.115Z,40.07
2023-03-28T12:27:54.896Z,37.58
2023-03-28T12:30:43.106Z,39.83
2023-03-28T12:33:28.232Z,41.09
2023-03-28T12:36:17.855Z,40.21
2023-03-28T12:38:57.965Z,38.09
2023-03-28T12:41:39.927Z,36.99
2023-03-28T12:44:21.052Z,38.13
2023-03-28T12:46:59.110Z,34.93
2023-03-28T12:49:42.695Z,34.55
2023-03-28T12:52:21.796Z,36.10
2023-03-28T12:55:02.402Z,37.35
2023-03-28T12:57:47.637Z,38.32
2023-03-28T13:00:48.694Z,41.18
2023-03-28T13:03:52.601Z,40.89
2023-03-28T13:06:59.588Z,41.37
2023-03-28T13:09:48.481Z,40.75
2023-03-28T13:12:41.787Z,38.44
2023-03-28T13:15:33.009Z,38.99
2023-03-28T13:18:33.941Z,37.77
2023-03-28T13:21:08.475Z,36.03
2023-03-28T13:23:48.226Z,37.18
2023-03-28T13:26:19.853Z,37.99
2023-03-28T13:29:21.250Z,40.90
2023-03-28T13:31:53.129Z,39.89
2023-03-28T13:34:29.310Z,40.94
2023-03-28T13:36:58.030Z,40.99
2023-03-28T13:39:27.747Z,40.34
2023-03-28T13:42:32.881Z,41.24
2023-03-28T13:45:15.759Z,40.52
2023-03-28T13:47:44.888Z,41.18
2023-03-28T13:50:38.083Z,38.99
2023-03-28T13:53:59.517Z,39.25
2023-03-28T13:56:36.951Z,37.77
2023-03-28T13:59:18.174Z,38.36
2023-03-28T14:02:03.428Z,35.82
2023-03-28T14:04:37.687Z,37.29
2023-03-28T14:07:14.047Z,36.46
2023-03-28T14:09:44.230Z,36.65
2023-03-28T14:12:17.706Z,39.26
2023-03-28T14:14:51.267Z,40.90
2023-03-28T14:17:27.370Z,38.48
2023-03-28T14:19:59.785Z,37.76
2023-03-28T14:22:49.457Z,37.51
2023-03-28T14:25:56.734Z,38.35
2023-03-28T14:28:30.954Z,39.16
2023-03-28T14:31:04.768Z,40.15
2023-03-28T14:33:41.972Z,39.35
2023-03-28T14:36:18.626Z,40.34
2023-03-28T14:38:47.619Z,41.99
2023-03-28T14:41:21.710Z,40.78
2023-03-28T14:44:39.644Z,41.62
2023-03-28T14:47:14.376Z,43.94
2023-03-28T14:49:46.002Z,43.30
2023-03-28T14:52:17.420Z,42.56
2023-03-28T14:54:49.394Z,43.00
2023-03-28T14:57:19.767Z,44.16
2023-03-28T14:59:52.494Z,44.79
2023-03-28T15:02:48.312Z,43.25
2023-03-28T15:05:23.262Z,44.45
2023-03-28T15:07:58.795Z,44.01
2023-03-28T15:10:29.264Z,44.53
2023-03-28T15:13:08.813Z,45.36
2023-03-28T15:15:43.442Z,46.61
2023-03-28T15:18:17.752Z,45.05
2023-03-28T15:20:55.482Z,45.46
2023-03-28T15:23:29.286Z,48.08
2023-03-28T15:26:04.418Z,47.33
2023-03-28T15:28:38.849Z,47.27
2023-03-28T15:31:09.512Z,46.33
2023-03-28T15:33:38.371Z,46.48
2023-03-28T15:36:17.561Z,47.78
2023-03-28T15:42:40.662Z,47.27
2023-03-28T15:45:39.044Z,48.38
2023-03-28T15:48:20.440Z,48.66
2023-03-28T15:51:07.749Z,49.45
2023-03-28T15:53:43.442Z,50.85
2023-03-28T15:56:23.305Z,49.44
2023-03-28T15:58:52.998Z,49.99
2023-03-28T16:01:26.436Z,50.30
2023-03-28T16:04:28.757Z,51.05
2023-03-28T16:07:13.740Z,52.54
2023-03-28T16:09:46.790Z,52.41
2023-03-28T16:12:16.797Z,53.54
2023-03-28T16:14:49.987Z,54.03
2023-03-28T16:17:26.264Z,54.78
2023-03-28T16:20:33.680Z,56.01
2023-03-28T16:23:07.233Z,55.90
2023-03-28T16:25:38.750Z,55.77
2023-03-28T16:28:07.763Z,56.25
2023-03-28T16:31:08.084Z,56.04
2023-03-28T16:33:39.027Z,55.75
2023-03-28T16:36:09.478Z,56.41
2023-03-28T16:38:45.434Z,56.50
2023-03-28T16:41:16.164Z,58.40
2023-03-28T16:44:00.255Z,58.62
2023-03-28T16:46:29.700Z,59.38
2023-03-28T16:49:07.039Z,59.46
2023-03-28T16:51:44.467Z,59.71
2023-03-28T16:54:19.809Z,58.81
2023-03-28T16:56:52.768Z,59.20
2023-03-28T16:59:23.563Z,58.88
2023-03-28T17:01:56.333Z,59.10
2023-03-28T17:04:32.957Z,58.90
2023-03-28T17:07:06.693Z,58.43
2023-03-28T17:09:36.451Z,59.62
2023-03-28T17:12:07.457Z,59.48
2023-03-28T17:14:36.767Z,59.65
2023-03-28T17:17:05.566Z,59.80
2023-03-28T17:19:34.932Z,60.60
2023-03-28T17:22:03.789Z,61.15
2023-03-28T17:24:33.082Z,63.54
2023-03-28T17:27:02.169Z,64.32
2023-03-28T17:29:33.074Z,63.82
2023-03-28T17:32:03.196Z,64.19
2023-03-28T17:34:33.057Z,64.62
2023-03-28T17:37:02.328Z,65.69
2023-03-28T17:39:36.777Z,65.34
2023-03-28T17:42:07.242Z,66.54
2023-03-28T17:44:38.624Z,66.05
2023-03-28T17:47:07.715Z,65.83
2023-03-28T17:49:37.603Z,64.97
2023-03-28T17:52:10.602Z,65.36
2023-03-28T17:54:41.145Z,65.49
2023-03-28T17:57:14.482Z,65.42
2023-03-28T17:59:44.927Z,66.02
2023-03-28T18:02:14.357Z,66.98
2023-03-28T18:04:46.243Z,66.40
2023-03-28T18:07:22.324Z,66.47
2023-03-28T18:09:51.204Z,67.88
2023-03-28T18:12:21.558Z,68.41
2023-03-28T18:14:53.935Z,68.76
2023-03-28T18:17:23.678Z,68.51
2023-03-28T18:19:52.571Z,68.97
2023-03-28T18:22:21.865Z,68.20
2023-03-28T18:24:53.711Z,68.07
2023-03-28T18:27:22.856Z,68.67
2023-03-28T18:29:53.310Z,69.57
2023-03-28T18:32:22.540Z,68.70
2023-03-28T18:34:51.419Z,67.51
2023-03-28T18:37:20.323Z,67.38
2023-03-28T18:39:49.260Z,68.04
2023-03-28T18:42:18.121Z,68.41
2023-03-28T18:44:47.510Z,68.80
2023-03-28T18:47:19.038Z,68.24
2023-03-28T18:49:49.870Z,68.61
2023-03-28T18:52:19.521Z,67.89
2023-03-28T18:54:48.886Z,66.80
2023-03-28T18:57:22.970Z,67.89
2023-03-28T18:59:52.962Z,68.67
2023-03-28T19:02:24.788Z,68.00
2023-03-28T19:05:02.787Z,68.85
2023-03-28T19:07:31.667Z,68.67
2023-03-28T19:10:00.535Z,68.26
2023-03-28T19:12:31.511Z,67.92
2023-03-28T19:15:00.961Z,68.40
2023-03-28T19:17:32.243Z,68.03
2023-03-28T19:20:01.957Z,67.64
2023-03-28T19:22:30.909Z,68.54
2023-03-28T19:25:00.414Z,69.41
2023-03-28T19:27:29.240Z,68.95
2023-03-28T19:29:58.185Z,68.26
2023-03-28T19:32:28.627Z,67.79
2023-03-28T19:35:00.022Z,67.85
2023-03-28T19:37:44.455Z,67.67
2023-03-28T19:40:16.627Z,68.27
2023-03-28T19:42:45.458Z,68.86
2023-03-28T19:45:14.433Z,68.55
2023-03-28T19:47:48.119Z,68.17
2023-03-28T19:50:18.979Z,68.75
2023-03-28T19:52:47.792Z,69.89
2023-03-28T19:55:17.278Z,69.55
2023-03-28T19:57:45.971Z,69.01
2023-03-28T20:00:17.123Z,69.38
2023-03-28T20:02:46.167Z,69.16
2023-03-28T20:05:15.119Z,70.33
2023-03-28T20:07:45.420Z,69.79
2023-03-28T20:10:14.229Z,69.20
2023-03-28T20:12:42.934Z,68.73
2023-03-28T20:15:12.657Z,69.19
2023-03-28T20:17:41.493Z,68.71
2023-03-28T20:20:11.512Z,68.56
2023-03-28T20:22:40.312Z,68.39
2023-03-28T20:25:11.130Z,68.47
2023-03-28T20:27:40.063Z,68.16
2023-03-28T20:30:11.274Z,67.87
2023-03-28T20:32:40.080Z,68.00
2023-03-28T20:35:10.035Z,67.98
2023-03-28T20:37:38.745Z,67.60
2023-03-28T20:40:11.620Z,67.98
2023-03-28T20:42:41.162Z,67.77
2023-03-28T20:45:14.195Z,67.76
2023-03-28T20:47:43.194Z,67.90
2023-03-28T20:50:12.905Z,68.90
2023-03-28T20:52:42.555Z,69.98
2023-03-28T20:55:13.457Z,69.45
2023-03-28T20:57:42.458Z,70.42
2023-03-28T21:00:15.002Z,69.80
2023-03-28T21:02:46.294Z,69.07
2023-03-28T21:05:15.837Z,69.11
2023-03-28T21:07:44.524Z,68.85
2023-03-28T21:10:18.125Z,68.66
2023-03-28T21:12:47.472Z,69.04
2023-03-28T21:15:17.026Z,68.78
2023-03-28T21:17:49.158Z,68.66
2023-03-28T21:20:19.390Z,68.91
2023-03-28T21:22:48.160Z,69.02
2023-03-28T21:25:19.167Z,70.09
2023-03-28T21:27:47.988Z,70.30
2023-03-28T21:30:17.052Z,69.70
2023-03-28T21:32:47.798Z,69.67
2023-03-28T21:35:16.824Z,69.36
2023-03-28T21:37:45.632Z,69.98
2023-03-28T21:40:14.388Z,70.82
2023-03-28T21:42:44.649Z,72.54
2023-03-28T21:45:14.111Z,72.68
2023-03-28T21:47:44.882Z,72.57
2023-03-28T21:50:15.290Z,71.97
2023-03-28T21:52:44.146Z,70.98
2023-03-28T21:55:12.890Z,71.04
2023-03-28T21:57:41.582Z,71.17
2023-03-28T22:00:16.320Z,70.69
2023-03-28T22:02:45.744Z,70.92
2023-03-28T22:05:26.700Z,70.92
2023-03-28T22:07:57.803Z,70.86
2023-03-28T22:10:27.554Z,70.43
2023-03-28T22:12:58.952Z,71.23
2023-03-28T22:15:29.256Z,72.73
2023-03-28T22:17:59.248Z,72.63
2023-03-28T22:20:29.456Z,73.04
2023-03-28T22:23:00.625Z,73.78
2023-03-28T22:25:35.803Z,74.66
2023-03-28T22:28:06.782Z,73.49
2023-03-28T22:30:39.332Z,72.85
2023-03-28T22:33:10.701Z,71.79
2023-03-28T22:35:39.639Z,71.22
2023-03-28T22:38:09.000Z,71.24
2023-03-28T22:40:37.745Z,71.07
2023-03-28T22:43:06.642Z,70.94
2023-03-28T22:45:37.322Z,70.81
2023-03-28T22:48:14.301Z,70.45
2023-03-28T22:50:45.431Z,70.55
2023-03-28T22:53:15.637Z,71.92
2023-03-28T22:55:45.618Z,72.21
2023-03-28T22:58:14.478Z,73.01
2023-03-28T23:00:44.883Z,72.94
2023-03-28T23:03:13.770Z,73.52
2023-03-28T23:05:42.557Z,72.97
2023-03-28T23:08:12.237Z,72.41
2023-03-28T23:10:42.485Z,72.35
2023-03-28T23:13:11.513Z,72.45
2023-03-28T23:15:40.210Z,73.23
2023-03-28T23:18:11.040Z,72.40
2023-03-28T23:20:39.807Z,72.21
2023-03-28T23:23:08.933Z,72.65
2023-03-28T23:25:39.114Z,72.21
2023-03-28T23:28:08.845Z,72.71
2023-03-28T23:30:39.605Z,72.72
2023-03-28T23:33:09.834Z,72.41
2023-03-28T23:35:38.714Z,72.58
2023-03-28T23:38:07.495Z,72.04
2023-03-28T23:40:36.182Z,73.02
2023-03-28T23:43:05.013Z,73.40
2023-03-28T23:45:34.303Z,72.75
2023-03-28T23:48:03.234Z,74.16
2023-03-28T23:50:34.098Z,74.20
2023-03-28T23:53:03.109Z,73.50
2023-03-28T23:55:34.553Z,73.22
2023-03-28T23:58:04.630Z,72.90
